Terminal Aerodrome Forecast
Issued by NWS

Home | Current Version | Previous Version | Text Only | Print | Product List | Glossary On
Versions: 1 2 3 4 5 6 7 8 9 10 11 12 13
055
FTUS44 KSJT 262340
TAFSOA
TAF
KSOA 262340Z 2700/2724 VRB06KT P6SM SCT250
     FM271800 17010KT P6SM SCT250 PROB30 2718/2724 P6SM TS BKN050CB=

USA.gov is the U.S. government's official web portal to all federal, state and local government web resources and services.